Time;durP1;ratioP1;P1;durP2;ratioP2;P2;SDS_P1;SDS_P2;PMS_P1;PMS_P2;Temp;Humidity;BMP_temperature;BMP_pressure;BME280_temperature;BME280_humidity;BME280_pressure;Samples;Min_cycle;Max_cycle;Signal;HPM_P1;HPM_P2
2022/08/30 00:03:14;;;;;;;7.13;3.50;;;16.20;99.90;;;;;;5001867;28;20282;-71
2022/08/30 00:05:41;;;;;;;9.00;3.85;;;16.20;99.90;;;;;;5018431;28;20033;-72
2022/08/30 00:08:07;;;;;;;6.97;3.88;;;16.20;99.90;;;;;;5019223;28;20014;-71
2022/08/30 00:10:33;;;;;;;9.27;3.92;;;16.20;99.90;;;;;;5015575;28;20029;-71
2022/08/30 00:13:00;;;;;;;9.48;3.63;;;16.20;99.90;;;;;;5007763;28;20073;-71
2022/08/30 00:15:26;;;;;;;5.75;3.53;;;16.10;99.90;;;;;;5010949;28;20025;-71
2022/08/30 00:17:52;;;;;;;7.35;3.47;;;16.10;99.90;;;;;;5014682;28;20484;-71
2022/08/30 00:20:23;;;;;;;10.77;3.75;;;16.10;99.90;;;;;;5021694;28;20575;-71
2022/08/30 00:22:48;;;;;;;6.10;3.80;;;16.10;99.90;;;;;;5009741;28;20367;-71
2022/08/30 00:25:15;;;;;;;7.90;3.97;;;16.10;99.90;;;;;;5017371;28;20025;-71
2022/08/30 00:27:42;;;;;;;5.75;3.60;;;16.10;99.90;;;;;;5013958;28;20482;-70
2022/08/30 00:30:09;;;;;;;7.63;3.47;;;16.10;99.90;;;;;;5020597;28;20041;-71
2022/08/30 00:32:34;;;;;;;9.23;3.70;;;16.10;99.90;;;;;;5016428;28;20017;-71
2022/08/30 00:35:01;;;;;;;7.80;4.15;;;16.00;99.90;;;;;;5017115;28;20080;-71
2022/08/30 00:37:26;;;;;;;11.63;4.03;;;16.00;99.90;;;;;;5008013;28;20037;-71
2022/08/30 00:39:52;;;;;;;7.68;3.63;;;15.90;99.90;;;;;;5018330;28;20033;-71
2022/08/30 00:42:19;;;;;;;8.98;4.28;;;15.90;99.90;;;;;;5016059;28;20033;-71
2022/08/30 00:44:45;;;;;;;10.90;4.35;;;15.90;99.90;;;;;;5021465;28;20018;-71
2022/08/30 00:47:11;;;;;;;7.68;4.00;;;15.80;99.90;;;;;;5017546;28;20018;-71
2022/08/30 00:49:40;;;;;;;10.90;4.00;;;15.80;99.90;;;;;;5011647;28;20045;-70
2022/08/30 00:52:07;;;;;;;10.48;4.22;;;15.80;99.90;;;;;;5012110;28;20362;-70
2022/08/30 00:54:34;;;;;;;8.43;4.25;;;15.80;99.90;;;;;;5009851;28;20497;-71
2022/08/30 00:57:01;;;;;;;12.60;4.82;;;15.70;99.90;;;;;;5011450;28;20037;-71
2022/08/30 00:59:28;;;;;;;5.75;3.80;;;15.70;99.90;;;;;;5017308;28;20045;-70
2022/08/30 01:01:54;;;;;;;6.47;3.97;;;15.70;99.90;;;;;;5012061;28;20029;-71
2022/08/30 01:04:23;;;;;;;7.55;3.90;;;15.70;99.90;;;;;;5010616;28;20543;-71
2022/08/30 01:06:49;;;;;;;5.18;3.75;;;15.60;99.90;;;;;;5018090;28;20029;-71
2022/08/30 01:09:15;;;;;;;6.63;3.78;;;15.60;99.90;;;;;;5023271;28;20064;-71
2022/08/30 01:11:43;;;;;;;9.23;4.00;;;15.60;99.90;;;;;;5009903;28;20033;-71
2022/08/30 01:14:10;;;;;;;7.85;4.07;;;15.60;99.90;;;;;;5008344;28;20563;-71
2022/08/30 01:16:37;;;;;;;8.63;3.90;;;15.60;99.90;;;;;;5018175;28;20425;-71
2022/08/30 01:19:05;;;;;;;8.25;4.13;;;15.50;99.90;;;;;;5019727;28;20521;-71
2022/08/30 01:21:50;;;;;;;7.85;4.15;;;15.50;99.90;;;;;;5008719;28;20486;-71
2022/08/30 01:24:17;;;;;;;7.18;3.90;;;15.50;99.90;;;;;;5008189;28;20574;-71
2022/08/30 01:26:43;;;;;;;7.60;4.43;;;15.50;99.90;;;;;;5028177;28;20021;-71
2022/08/30 01:29:12;;;;;;;9.20;4.60;;;15.50;99.90;;;;;;5009626;28;20141;-73
2022/08/30 01:31:37;;;;;;;10.35;4.55;;;15.50;99.90;;;;;;5018515;28;20029;-71
2022/08/30 01:34:06;;;;;;;8.30;4.38;;;15.50;99.90;;;;;;5017029;28;20032;-71
2022/08/30 01:36:33;;;;;;;7.72;4.50;;;15.50;99.90;;;;;;5021025;28;20482;-71
2022/08/30 01:38:59;;;;;;;6.78;4.25;;;15.50;99.90;;;;;;5011743;28;20034;-71
2022/08/30 01:41:29;;;;;;;9.23;4.50;;;15.50;99.90;;;;;;5008227;28;20040;-71
2022/08/30 01:43:57;;;;;;;9.48;4.60;;;15.40;99.90;;;;;;5021361;28;20083;-71
2022/08/30 01:46:26;;;;;;;11.40;5.00;;;15.40;99.90;;;;;;5015852;28;20029;-71
2022/08/30 01:48:54;;;;;;;7.78;4.28;;;15.40;99.90;;;;;;5012072;28;20060;-70
2022/08/30 01:51:22;;;;;;;6.28;4.28;;;15.40;99.90;;;;;;5017355;28;20521;-71
2022/08/30 01:53:48;;;;;;;10.10;4.50;;;15.30;99.90;;;;;;5016406;28;20081;-71
2022/08/30 01:56:14;;;;;;;10.65;4.78;;;15.30;99.90;;;;;;5013467;28;20462;-71
2022/08/30 01:58:41;;;;;;;7.75;4.32;;;15.30;99.90;;;;;;5011066;28;20045;-71
2022/08/30 02:01:11;;;;;;;10.68;4.93;;;15.20;99.90;;;;;;5016861;28;20405;-71
2022/08/30 02:03:37;;;;;;;7.65;4.70;;;15.20;99.90;;;;;;5015031;28;20080;-70
2022/08/30 02:06:09;;;;;;;9.52;4.70;;;15.20;99.90;;;;;;5021302;28;20425;-70
2022/08/30 02:08:35;;;;;;;10.63;4.88;;;15.10;99.90;;;;;;5018538;28;20025;-70
2022/08/30 02:11:02;;;;;;;8.68;4.72;;;15.10;99.90;;;;;;5025203;28;20592;-70
2022/08/30 02:13:29;;;;;;;10.60;5.15;;;15.00;99.90;;;;;;5011861;28;20036;-70
2022/08/30 02:15:55;;;;;;;12.00;4.70;;;15.00;99.90;;;;;;5012882;28;20040;-70
2022/08/30 02:18:22;;;;;;;10.18;5.20;;;14.90;99.90;;;;;;5022832;28;20628;-70
2022/08/30 02:20:48;;;;;;;13.00;5.85;;;14.90;99.90;;;;;;5019474;28;20035;-70
2022/08/30 02:23:14;;;;;;;8.55;5.10;;;14.80;99.90;;;;;;5017911;28;20409;-70
2022/08/30 02:25:40;;;;;;;13.75;5.82;;;14.80;99.90;;;;;;5011836;28;20642;-71
2022/08/30 02:28:06;;;;;;;17.50;5.10;;;14.80;99.90;;;;;;5021802;28;20040;-71
2022/08/30 02:30:32;;;;;;;11.88;5.65;;;14.80;99.90;;;;;;5023905;28;20052;-71
2022/08/30 02:32:58;;;;;;;17.75;6.03;;;14.80;99.90;;;;;;5010481;28;20018;-71
2022/08/30 02:35:25;;;;;;;13.48;6.22;;;14.80;99.90;;;;;;5012049;28;20022;-71
2022/08/30 02:37:51;;;;;;;15.15;6.90;;;14.80;99.90;;;;;;5024156;28;20414;-71
2022/08/30 02:40:17;;;;;;;14.43;6.20;;;14.80;99.90;;;;;;5008947;28;20174;-71
2022/08/30 02:42:42;;;;;;;10.95;6.60;;;14.90;99.90;;;;;;5011004;28;20115;-70
2022/08/30 02:45:08;;;;;;;14.13;6.20;;;14.90;99.90;;;;;;5017164;28;20103;-71
2022/08/30 02:47:34;;;;;;;10.80;6.18;;;14.90;99.90;;;;;;5016584;28;20459;-71
2022/08/30 02:50:03;;;;;;;13.95;6.35;;;14.90;99.90;;;;;;5014352;28;20029;-71
2022/08/30 02:52:29;;;;;;;10.88;6.05;;;14.90;99.90;;;;;;5016586;28;20467;-72
2022/08/30 02:54:55;;;;;;;9.10;5.95;;;14.90;99.90;;;;;;5012478;28;20178;-71
2022/08/30 02:57:21;;;;;;;9.75;5.97;;;14.90;99.90;;;;;;5014926;28;20049;-71
2022/08/30 02:59:47;;;;;;;16.52;6.95;;;14.90;99.90;;;;;;5008758;28;20068;-70
2022/08/30 03:02:13;;;;;;;13.75;6.50;;;14.90;99.90;;;;;;5023332;28;20478;-71
2022/08/30 03:04:39;;;;;;;9.80;6.40;;;14.90;99.90;;;;;;5008874;28;20045;-70
2022/08/30 03:07:07;;;;;;;13.90;6.82;;;14.90;99.90;;;;;;5026071;28;20087;-71
2022/08/30 03:09:33;;;;;;;12.15;6.53;;;14.90;99.90;;;;;;5026151;28;20041;-71
2022/08/30 03:11:59;;;;;;;10.70;6.55;;;14.90;99.90;;;;;;5017308;28;20342;-71
2022/08/30 03:14:25;;;;;;;10.52;6.20;;;14.90;99.90;;;;;;5015338;28;20557;-71
2022/08/30 03:16:50;;;;;;;8.98;6.30;;;14.90;99.90;;;;;;5017894;28;20025;-71
2022/08/30 03:19:16;;;;;;;12.43;6.30;;;14.90;99.90;;;;;;5010579;28;20044;-71
2022/08/30 03:21:42;;;;;;;9.07;6.10;;;14.90;99.90;;;;;;5017725;28;20095;-70
2022/08/30 03:24:08;;;;;;;11.20;6.65;;;14.80;99.90;;;;;;5017555;28;20497;-70
2022/08/30 03:26:33;;;;;;;11.70;5.93;;;14.90;99.90;;;;;;5023190;28;20036;-71
2022/08/30 03:28:59;;;;;;;10.63;5.90;;;14.80;99.90;;;;;;5015311;28;20021;-71
2022/08/30 03:31:24;;;;;;;9.48;6.13;;;14.80;99.90;;;;;;5017439;28;20507;-71
2022/08/30 03:33:50;;;;;;;10.73;6.43;;;14.80;99.90;;;;;;5022743;28;20033;-71
2022/08/30 03:36:15;;;;;;;5.68;5.07;;;14.80;99.90;;;;;;5019394;28;20033;-71
2022/08/30 03:38:41;;;;;;;7.60;5.18;;;14.70;99.90;;;;;;5023817;28;20048;-71
2022/08/30 03:41:07;;;;;;;6.40;5.05;;;14.60;99.90;;;;;;5009718;28;20037;-71
2022/08/30 03:43:32;;;;;;;8.63;6.10;;;14.60;99.90;;;;;;5004241;28;20045;-71
2022/08/30 03:46:01;;;;;;;8.60;5.60;;;14.50;99.90;;;;;;5021764;28;20033;-71
2022/08/30 03:48:27;;;;;;;8.52;6.00;;;14.60;99.90;;;;;;5017441;28;20033;-71
2022/08/30 03:50:53;;;;;;;7.18;5.22;;;14.60;99.90;;;;;;5012112;28;20036;-70
2022/08/30 03:53:19;;;;;;;6.07;4.60;;;14.60;99.90;;;;;;5009976;28;20022;-71
2022/08/30 03:55:44;;;;;;;5.60;4.95;;;14.70;99.90;;;;;;5013518;28;21205;-71
2022/08/30 03:58:10;;;;;;;9.40;4.60;;;14.50;99.90;;;;;;5015494;28;20046;-71
2022/08/30 04:00:36;;;;;;;8.63;5.30;;;14.40;99.90;;;;;;5016886;28;20026;-70
2022/08/30 04:03:02;;;;;;;7.93;5.30;;;14.30;99.90;;;;;;5012042;28;20021;-71
2022/08/30 04:05:27;;;;;;;9.90;5.72;;;14.30;99.90;;;;;;5000505;28;20112;-71
2022/08/30 04:07:53;;;;;;;7.40;5.40;;;14.30;99.90;;;;;;5018172;28;20033;-71
2022/08/30 04:10:20;;;;;;;6.00;4.75;;;14.40;99.90;;;;;;5012264;28;20026;-71
2022/08/30 04:12:49;;;;;;;6.15;4.72;;;14.40;99.90;;;;;;5017484;28;20065;-70
2022/08/30 04:15:16;;;;;;;10.38;5.28;;;14.40;99.90;;;;;;5015921;28;20375;-71
2022/08/30 04:17:42;;;;;;;7.20;5.28;;;14.40;99.90;;;;;;5020446;28;20095;-71
2022/08/30 04:20:09;;;;;;;7.20;5.10;;;14.40;99.90;;;;;;5013396;28;20164;-71
2022/08/30 04:22:35;;;;;;;7.07;5.30;;;14.50;99.90;;;;;;5006654;28;20033;-70
2022/08/30 04:25:02;;;;;;;5.95;4.90;;;14.50;99.90;;;;;;5015977;28;20482;-71
2022/08/30 04:27:27;;;;;;;9.95;5.28;;;14.40;99.90;;;;;;5017752;28;20083;-71
2022/08/30 04:29:55;;;;;;;7.15;4.53;;;14.30;99.90;;;;;;5018623;28;20022;-71
2022/08/30 04:32:21;;;;;;;6.88;4.90;;;14.10;99.90;;;;;;5020487;28;20041;-71
2022/08/30 04:34:47;;;;;;;5.60;4.80;;;13.90;99.90;;;;;;5019092;28;20580;-71
2022/08/30 04:37:13;;;;;;;5.80;4.47;;;13.80;99.90;;;;;;5017208;28;20116;-71
2022/08/30 04:39:39;;;;;;;4.78;4.03;;;13.70;99.90;;;;;;5012183;28;20202;-71
2022/08/30 04:42:05;;;;;;;8.20;5.18;;;13.60;99.90;;;;;;5015905;28;20022;-71
2022/08/30 04:44:31;;;;;;;5.35;4.35;;;13.60;99.90;;;;;;5025503;28;20025;-71
2022/08/30 04:46:57;;;;;;;6.85;4.80;;;13.60;99.90;;;;;;5017097;28;20036;-70
2022/08/30 04:49:23;;;;;;;8.38;5.47;;;13.70;99.90;;;;;;5017541;28;20632;-71
2022/08/30 04:51:49;;;;;;;12.30;5.60;;;13.80;99.90;;;;;;5011084;28;20057;-71
2022/08/30 04:54:14;;;;;;;8.93;5.70;;;13.90;99.90;;;;;;5009131;28;20570;-71
2022/08/30 04:56:40;;;;;;;8.63;5.50;;;14.00;99.90;;;;;;5017834;28;20295;-71
2022/08/30 04:59:06;;;;;;;10.45;5.72;;;14.10;99.90;;;;;;5015610;28;20049;-70
2022/08/30 05:01:32;;;;;;;7.35;5.75;;;14.10;99.90;;;;;;5014119;28;20022;-71
2022/08/30 05:03:58;;;;;;;10.68;6.40;;;14.20;99.90;;;;;;5008268;28;20025;-72
2022/08/30 05:06:26;;;;;;;11.05;6.00;;;14.20;99.90;;;;;;5017154;28;20036;-71
2022/08/30 05:08:53;;;;;;;10.52;6.57;;;14.20;99.90;;;;;;5025774;28;20033;-71
2022/08/30 05:11:20;;;;;;;9.25;6.43;;;14.30;99.90;;;;;;5013670;28;20505;-70
2022/08/30 05:13:45;;;;;;;9.60;6.13;;;14.40;99.90;;;;;;5012321;28;20026;-71
2022/08/30 05:16:16;;;;;;;13.77;6.43;;;14.40;99.90;;;;;;5026034;28;20029;-71
2022/08/30 05:18:42;;;;;;;12.50;6.35;;;14.40;99.90;;;;;;5022732;28;20036;-71
2022/08/30 05:21:11;;;;;;;11.60;6.22;;;14.40;99.90;;;;;;5021851;28;20454;-71
2022/08/30 05:23:38;;;;;;;8.60;6.05;;;14.40;99.90;;;;;;5016164;28;20014;-71
2022/08/30 05:26:06;;;;;;;11.50;6.10;;;14.40;99.90;;;;;;5028222;28;20030;-71
2022/08/30 05:28:32;;;;;;;10.15;6.57;;;14.40;99.90;;;;;;5024669;28;20500;-70
2022/08/30 05:30:57;;;;;;;9.70;6.45;;;14.50;99.90;;;;;;5005986;28;22251;-70
2022/08/30 05:33:23;;;;;;;11.18;6.38;;;14.40;99.90;;;;;;5012297;28;20022;-70
2022/08/30 05:35:49;;;;;;;10.88;6.55;;;14.50;99.90;;;;;;5012255;28;20116;-71
2022/08/30 05:38:14;;;;;;;10.93;6.93;;;14.50;99.90;;;;;;5009690;28;20010;-71
2022/08/30 05:40:41;;;;;;;10.70;7.00;;;14.50;99.90;;;;;;5015570;28;20112;-70
2022/08/30 05:43:08;;;;;;;11.43;6.38;;;14.50;99.90;;;;;;5014752;28;20076;-71
2022/08/30 05:45:34;;;;;;;13.02;7.22;;;14.60;99.90;;;;;;5021476;28;20026;-71
2022/08/30 05:48:00;;;;;;;12.90;7.20;;;14.60;99.90;;;;;;5019854;28;20048;-69
2022/08/30 05:50:26;;;;;;;9.52;6.78;;;14.60;99.90;;;;;;5024988;28;20052;-70
2022/08/30 05:52:51;;;;;;;16.13;7.40;;;14.70;99.90;;;;;;5018915;28;20033;-71
2022/08/30 05:55:17;;;;;;;11.75;7.13;;;14.70;99.90;;;;;;5018127;28;20053;-70
2022/08/30 05:57:43;;;;;;;14.20;7.32;;;14.70;99.90;;;;;;5020766;28;20108;-71
2022/08/30 06:00:16;;;;;;;9.00;6.82;;;14.70;99.90;;;;;;5022012;28;20516;-71
2022/08/30 06:02:42;;;;;;;9.65;6.65;;;14.70;99.90;;;;;;5007964;28;20020;-71
2022/08/30 06:05:09;;;;;;;8.65;6.78;;;14.80;99.90;;;;;;5015555;28;20095;-70
2022/08/30 06:07:34;;;;;;;13.45;7.50;;;14.80;99.90;;;;;;5013929;28;20021;-70
2022/08/30 06:10:00;;;;;;;12.30;7.35;;;14.80;99.90;;;;;;5016138;28;20040;-71
2022/08/30 06:12:26;;;;;;;11.20;7.25;;;14.80;99.90;;;;;;5012842;28;20457;-70
2022/08/30 06:14:52;;;;;;;10.55;6.80;;;14.90;99.90;;;;;;5016892;28;20113;-71
2022/08/30 06:17:18;;;;;;;10.82;6.75;;;14.90;99.90;;;;;;5021409;28;20033;-71
2022/08/30 06:19:43;;;;;;;11.73;7.10;;;15.00;99.90;;;;;;5015671;28;20057;-71
2022/08/30 06:22:09;;;;;;;10.20;7.25;;;15.00;99.90;;;;;;5016277;28;20034;-71
2022/08/30 06:24:35;;;;;;;12.75;7.45;;;15.10;99.90;;;;;;5013878;28;20021;-71
2022/08/30 06:27:01;;;;;;;12.27;7.30;;;15.10;99.90;;;;;;5012034;28;20408;-71
2022/08/30 06:29:26;;;;;;;10.15;7.55;;;15.20;99.90;;;;;;5015426;28;20041;-71
2022/08/30 06:31:52;;;;;;;10.38;7.03;;;15.20;99.90;;;;;;5018906;28;20371;-71
2022/08/30 06:34:18;;;;;;;9.60;7.13;;;15.30;99.90;;;;;;5017241;28;20134;-71
2022/08/30 06:36:44;;;;;;;12.05;7.10;;;15.30;99.90;;;;;;5020275;28;20053;-72
2022/08/30 06:39:10;;;;;;;11.60;7.30;;;15.30;99.90;;;;;;5011879;28;20080;-71
2022/08/30 06:41:38;;;;;;;12.95;7.57;;;15.40;99.90;;;;;;5012036;28;20034;-71
2022/08/30 06:44:05;;;;;;;13.38;7.28;;;15.50;99.90;;;;;;5015854;28;20104;-70
2022/08/30 06:46:33;;;;;;;13.18;6.68;;;15.70;99.90;;;;;;5019316;28;20482;-71
2022/08/30 06:48:59;;;;;;;17.05;7.65;;;15.90;99.90;;;;;;5012536;28;20558;-70
2022/08/30 06:51:30;;;;;;;12.75;7.28;;;16.00;99.90;;;;;;5018386;28;20029;-71
2022/08/30 06:53:57;;;;;;;10.23;7.05;;;16.00;99.90;;;;;;5014920;28;20090;-71
2022/08/30 06:56:24;;;;;;;12.90;6.72;;;16.10;99.90;;;;;;5011043;28;20022;-71
2022/08/30 06:58:51;;;;;;;11.63;6.97;;;16.20;99.90;;;;;;5023787;28;20517;-70
2022/08/30 07:01:26;;;;;;;10.32;7.15;;;16.30;99.90;;;;;;5016818;28;20694;-71
2022/08/30 07:03:52;;;;;;;8.90;6.65;;;16.40;99.90;;;;;;5010664;28;20033;-71
2022/08/30 07:06:19;;;;;;;9.57;7.20;;;16.60;99.90;;;;;;5017173;28;20497;-70
2022/08/30 07:08:46;;;;;;;9.93;7.40;;;16.80;99.90;;;;;;5011258;28;20430;-71
2022/08/30 07:11:12;;;;;;;11.13;6.88;;;17.10;99.90;;;;;;5010301;28;20026;-70
2022/08/30 07:13:38;;;;;;;13.95;7.65;;;17.20;99.90;;;;;;5012963;28;20033;-70
2022/08/30 07:16:13;;;;;;;10.93;7.60;;;17.20;99.90;;;;;;5013472;28;20030;-71
2022/08/30 07:18:54;;;;;;;12.70;6.80;;;17.20;99.90;;;;;;5013351;28;20116;-70
2022/08/30 07:21:25;;;;;;;9.55;7.10;;;17.30;99.90;;;;;;5019059;28;20021;-70
2022/08/30 07:23:52;;;;;;;9.90;7.10;;;17.30;99.90;;;;;;5022523;28;20105;-71
2022/08/30 07:26:21;;;;;;;12.75;7.10;;;17.30;99.90;;;;;;5015791;28;20521;-70
2022/08/30 07:28:47;;;;;;;15.70;7.78;;;17.30;99.90;;;;;;5011067;28;20470;-71
2022/08/30 07:31:15;;;;;;;11.23;6.93;;;17.30;99.90;;;;;;5010667;28;20067;-71
2022/08/30 07:33:41;;;;;;;10.60;7.53;;;17.30;99.90;;;;;;5006319;28;20029;-71
2022/08/30 07:36:07;;;;;;;16.65;7.55;;;17.20;99.90;;;;;;5016372;28;20026;-71
2022/08/30 07:38:33;;;;;;;14.57;7.95;;;17.20;99.90;;;;;;5009637;28;20096;-70
2022/08/30 07:41:00;;;;;;;15.00;7.82;;;17.40;99.90;;;;;;5008737;28;20025;-72
2022/08/30 07:43:30;;;;;;;11.75;7.25;;;17.30;99.90;;;;;;5012452;28;20076;-71
2022/08/30 07:46:01;;;;;;;13.73;6.88;;;17.60;99.90;;;;;;5006515;28;20108;-71
2022/08/30 07:48:26;;;;;;;9.35;6.57;;;17.70;99.90;;;;;;5013494;28;20061;-71
2022/08/30 07:50:52;;;;;;;10.55;6.22;;;17.90;99.90;;;;;;5010373;28;20457;-71
2022/08/30 07:53:17;;;;;;;9.43;6.28;;;18.10;99.90;;;;;;5012823;28;20018;-70
2022/08/30 07:55:43;;;;;;;13.48;7.03;;;18.20;99.90;;;;;;5016298;28;20029;-71
2022/08/30 07:58:08;;;;;;;15.00;6.63;;;18.30;99.90;;;;;;5010322;28;20521;-71
2022/08/30 08:00:34;;;;;;;10.50;6.38;;;18.50;99.90;;;;;;5012239;28;20109;-70
2022/08/30 08:03:07;;;;;;;17.25;5.80;;;18.60;99.90;;;;;;5013662;28;20017;-70
2022/08/30 08:05:39;;;;;;;11.52;5.70;;;18.80;99.90;;;;;;5007054;28;20029;-70
2022/08/30 08:08:04;;;;;;;8.10;5.72;;;19.00;99.90;;;;;;5017893;28;20364;-70
2022/08/30 08:10:30;;;;;;;9.90;5.35;;;19.20;99.90;;;;;;5018297;28;20467;-71
2022/08/30 08:12:56;;;;;;;7.07;4.82;;;19.40;99.90;;;;;;5015790;28;20056;-72
2022/08/30 08:15:22;;;;;;;6.47;4.60;;;19.50;99.90;;;;;;5019751;28;20021;-71
2022/08/30 08:17:47;;;;;;;10.98;4.35;;;19.60;99.90;;;;;;5014537;28;20049;-70
2022/08/30 08:20:13;;;;;;;6.43;4.25;;;19.60;99.90;;;;;;5005817;28;20588;-71
2022/08/30 08:22:38;;;;;;;7.78;3.85;;;19.70;99.90;;;;;;5014311;28;20100;-70
2022/08/30 08:25:04;;;;;;;11.05;4.20;;;19.90;99.90;;;;;;5008763;28;20428;-70
2022/08/30 08:27:30;;;;;;;7.05;4.00;;;20.00;99.90;;;;;;5022735;28;20036;-71
2022/08/30 08:29:55;;;;;;;13.00;4.40;;;20.00;99.90;;;;;;5017511;28;20517;-70
2022/08/30 08:32:21;;;;;;;10.18;3.90;;;20.10;99.90;;;;;;5013117;28;20029;-70
2022/08/30 08:34:47;;;;;;;9.57;4.03;;;20.10;99.90;;;;;;5022699;28;20088;-71
2022/08/30 08:37:12;;;;;;;7.05;3.80;;;20.10;99.90;;;;;;5012454;28;20464;-70
2022/08/30 08:39:38;;;;;;;7.63;3.80;;;20.10;99.90;;;;;;5016695;28;20179;-70
2022/08/30 08:42:09;;;;;;;7.60;3.55;;;20.10;99.90;;;;;;5018034;28;20101;-70
2022/08/30 08:44:57;;;;;;;5.63;3.60;;;20.10;99.90;;;;;;5018256;28;20500;-70
2022/08/30 08:47:56;;;;;;;9.88;3.70;;;20.20;99.90;;;;;;5006446;28;20038;-70
2022/08/30 08:50:22;;;;;;;6.45;3.35;;;20.20;99.90;;;;;;5023763;28;20512;-70
2022/08/30 08:55:54;;;;;;;7.82;3.30;;;20.30;99.90;;;;;;5012934;28;20087;-71
2022/08/30 08:58:33;;;;;;;13.95;3.88;;;20.40;99.90;;;;;;5011685;28;20041;-71
2022/08/30 09:00:59;;;;;;;8.73;3.30;;;20.50;99.90;;;;;;5017389;28;20498;-71
2022/08/30 09:03:27;;;;;;;10.18;3.35;;;20.50;99.90;;;;;;5007934;28;20083;-71
2022/08/30 09:05:54;;;;;;;4.45;2.70;;;20.60;99.90;;;;;;5014648;28;20517;-70
2022/08/30 09:08:22;;;;;;;6.90;3.03;;;20.70;99.90;;;;;;5018650;28;20354;-70
2022/08/30 09:11:01;;;;;;;7.28;3.17;;;20.80;99.90;;;;;;5012311;28;20410;-70
2022/08/30 09:13:27;;;;;;;5.65;2.97;;;20.90;99.90;;;;;;5014661;28;20142;-71
2022/08/30 09:15:55;;;;;;;5.15;2.80;;;21.00;99.90;;;;;;5016764;28;20470;-71
2022/08/30 09:18:44;;;;;;;6.15;2.90;;;21.20;99.90;;;;;;5012683;28;20098;-71
2022/08/30 09:21:11;;;;;;;6.63;2.80;;;21.30;99.90;;;;;;5015840;28;20029;-71
2022/08/30 09:23:53;;;;;;;3.25;2.47;;;21.30;99.90;;;;;;5016936;28;20470;-70
2022/08/30 09:26:31;;;;;;;6.80;3.08;;;21.50;99.90;;;;;;5019455;28;20509;-71
2022/08/30 09:28:59;;;;;;;6.72;2.70;;;21.70;99.90;;;;;;5017505;28;20037;-71
2022/08/30 09:31:50;;;;;;;5.90;2.47;;;21.80;99.90;;;;;;5013522;28;20043;-71
2022/08/30 09:34:19;;;;;;;6.22;2.70;;;21.90;99.90;;;;;;5018036;28;20029;-70
2022/08/30 09:36:52;;;;;;;4.40;2.47;;;22.00;99.90;;;;;;5014513;28;20040;-71
2022/08/30 09:39:36;;;;;;;;;;;22.10;99.90;;;;;;5029242;28;20075;-71
2022/08/30 09:42:31;;;;;;;8.85;3.47;;;22.30;99.90;;;;;;5022235;28;20442;-71
2022/08/30 09:45:09;;;;;;;4.55;2.47;;;22.30;99.90;;;;;;5006287;28;20048;-70
2022/08/30 09:47:39;;;;;;;4.43;2.53;;;22.30;99.90;;;;;;5022742;28;20392;-71
2022/08/30 09:50:15;;;;;;;5.75;2.90;;;22.50;99.90;;;;;;5024148;28;20112;-70
2022/08/30 09:52:50;;;;;;;9.82;3.00;;;22.70;99.90;;;;;;5017938;28;20034;-71
2022/08/30 09:55:16;;;;;;;11.85;3.30;;;22.70;99.90;;;;;;5024160;28;20027;-70
2022/08/30 09:57:47;;;;;;;7.55;3.10;;;22.80;99.90;;;;;;5020913;28;20029;-70
2022/08/30 10:00:18;;;;;;;5.03;2.50;;;23.00;99.30;;;;;;5017372;28;20026;-71
2022/08/30 10:02:52;;;;;;;4.40;2.67;;;23.20;99.10;;;;;;5010108;28;20033;-72
2022/08/30 10:05:30;;;;;;;4.22;2.42;;;23.30;98.00;;;;;;5015044;28;20616;-71
2022/08/30 10:08:19;;;;;;;12.80;2.90;;;23.50;96.70;;;;;;5017579;28;20034;-70
2022/08/30 10:10:55;;;;;;;14.40;2.97;;;23.50;96.70;;;;;;5018029;28;20510;-71
2022/08/30 10:13:29;;;;;;;5.50;2.65;;;23.60;96.40;;;;;;5011782;28;20099;-71
2022/08/30 10:16:25;;;;;;;7.28;2.40;;;23.60;96.00;;;;;;5016140;28;20036;-71
2022/08/30 10:19:14;;;;;;;6.47;2.40;;;23.70;95.50;;;;;;5019895;28;20037;-71
2022/08/30 10:22:16;;;;;;;9.98;2.70;;;23.80;95.00;;;;;;5017335;28;20104;-71
2022/08/30 10:24:49;;;;;;;6.45;2.63;;;23.70;95.30;;;;;;5004437;28;20036;-70
2022/08/30 10:27:25;;;;;;;6.60;2.60;;;23.50;95.40;;;;;;5023353;28;20125;-70
2022/08/30 10:30:01;;;;;;;8.38;2.80;;;23.50;95.20;;;;;;5016437;28;20725;-70
2022/08/30 10:32:36;;;;;;;3.08;2.50;;;23.60;94.90;;;;;;5014407;28;20502;-71
2022/08/30 10:35:32;;;;;;;9.63;2.70;;;23.70;93.70;;;;;;5020464;28;20032;-71
2022/08/30 10:38:22;;;;;;;5.90;2.42;;;23.80;94.00;;;;;;5025728;28;20371;-71
2022/08/30 10:41:12;;;;;;;8.65;2.63;;;23.90;94.20;;;;;;5018157;28;20088;-70
2022/08/30 10:44:04;;;;;;;5.20;2.67;;;23.90;93.70;;;;;;5019090;28;20030;-70
2022/08/30 10:46:51;;;;;;;6.40;2.80;;;23.90;94.30;;;;;;5022599;28;20026;-70
2022/08/30 10:49:21;;;;;;;3.90;2.35;;;23.80;93.10;;;;;;5015744;28;20025;-70
2022/08/30 10:52:04;;;;;;;5.05;2.60;;;23.90;92.50;;;;;;5010630;28;20088;-71
2022/08/30 10:54:39;;;;;;;4.50;2.70;;;24.10;92.60;;;;;;5011769;28;20521;-71
2022/08/30 10:57:05;;;;;;;11.57;3.08;;;24.20;92.60;;;;;;5015051;28;20040;-71
2022/08/30 10:59:32;;;;;;;6.00;2.65;;;24.20;92.10;;;;;;4328300;28;10001317;-70
2022/08/30 11:02:40;;;;;;;5.10;2.05;;;24.20;92.00;;;;;;5016802;28;20037;-70
2022/08/30 11:05:30;;;;;;;7.20;2.30;;;24.20;92.20;;;;;;5009783;28;20040;-71
2022/08/30 11:08:35;;;;;;;13.10;3.28;;;24.20;92.80;;;;;;5013991;28;20083;-71
2022/08/30 11:11:22;;;;;;;6.35;2.60;;;24.30;92.80;;;;;;4979382;28;20060;-70
2022/08/30 11:13:49;;;;;;;5.95;2.47;;;24.30;92.40;;;;;;5009598;28;20145;-71
2022/08/30 11:16:17;;;;;;;3.55;2.15;;;24.30;91.90;;;;;;5020733;28;20037;-71
2022/08/30 11:18:47;;;;;;;4.10;2.40;;;24.30;91.60;;;;;;5011947;28;20125;-71
2022/08/30 11:21:33;;;;;;;5.75;2.00;;;24.40;90.80;;;;;;5010860;28;20029;-70
2022/08/30 11:24:09;;;;;;;7.55;2.38;;;24.70;90.60;;;;;;5022420;28;20045;-70
2022/08/30 11:26:53;;;;;;;4.70;2.50;;;24.70;90.70;;;;;;5007144;28;20033;-71
2022/08/30 11:29:25;;;;;;;4.53;2.47;;;24.80;90.10;;;;;;5014839;28;20029;-71
2022/08/30 11:31:51;;;;;;;3.53;2.10;;;24.80;89.30;;;;;;5022947;28;20037;-71
2022/08/30 11:34:43;;;;;;;5.53;2.22;;;24.90;88.80;;;;;;5012120;28;20030;-71
2022/08/30 11:37:29;;;;;;;5.18;2.17;;;25.20;88.60;;;;;;5011647;28;20095;-71
2022/08/30 11:39:58;;;;;;;5.13;2.53;;;25.20;88.20;;;;;;5005074;28;20029;-70
2022/08/30 11:42:44;;;;;;;9.93;2.95;;;25.30;89.20;;;;;;5011935;28;20022;-71
2022/08/30 11:45:22;;;;;;;10.57;2.70;;;25.10;89.50;;;;;;5010401;28;20025;-70
2022/08/30 11:47:59;;;;;;;7.38;2.45;;;25.10;87.70;;;;;;5014034;28;20502;-70
2022/08/30 11:50:48;;;;;;;6.40;2.60;;;25.00;87.80;;;;;;5020837;28;20038;-70
2022/08/30 11:53:19;;;;;;;7.95;2.58;;;24.70;87.50;;;;;;5009744;28;20709;-71
2022/08/30 11:56:03;;;;;;;4.10;2.42;;;24.50;87.90;;;;;;5004734;28;20053;-70
2022/08/30 11:58:31;;;;;;;5.55;2.35;;;24.50;89.00;;;;;;5014849;28;20045;-71
2022/08/30 12:01:14;;;;;;;4.13;2.50;;;24.80;88.30;;;;;;5008978;28;20037;-70
2022/08/30 12:03:40;;;;;;;5.10;2.47;;;25.10;87.20;;;;;;5010209;28;20073;-71
2022/08/30 12:06:09;;;;;;;3.63;2.50;;;25.10;85.50;;;;;;5011430;28;20032;-71
2022/08/30 12:08:44;;;;;;;5.85;2.13;;;25.20;85.30;;;;;;5019012;28;20033;-71
2022/08/30 12:11:30;;;;;;;7.30;2.30;;;25.40;84.00;;;;;;5015949;28;20038;-71
2022/08/30 12:13:56;;;;;;;9.40;2.30;;;25.60;83.60;;;;;;4999601;28;20034;-71
2022/08/30 12:16:34;;;;;;;6.80;2.50;;;25.90;82.60;;;;;;5023427;28;20039;-71
2022/08/30 12:19:14;;;;;;;4.10;2.40;;;26.10;82.10;;;;;;5017606;28;20497;-71
2022/08/30 12:21:40;;;;;;;7.13;2.30;;;26.30;80.00;;;;;;5006609;28;20927;-72
2022/08/30 12:24:17;;;;;;;5.90;2.47;;;26.10;79.00;;;;;;5010140;28;20114;-74
2022/08/30 12:26:45;;;;;;;5.05;2.40;;;25.80;80.60;;;;;;5013649;28;20025;-72
2022/08/30 12:29:14;;;;;;;6.68;2.22;;;25.40;80.90;;;;;;5018319;28;20033;-74
2022/08/30 12:31:45;;;;;;;5.78;2.60;;;25.20;80.60;;;;;;5005769;28;20033;-73
2022/08/30 12:34:27;;;;;;;6.30;2.50;;;25.20;79.10;;;;;;5015359;28;20493;-72
2022/08/30 12:36:56;;;;;;;5.57;2.00;;;25.10;80.40;;;;;;5010804;28;20034;-74
2022/08/30 12:39:29;;;;;;;6.15;2.30;;;25.20;79.20;;;;;;5015274;28;20387;-75
2022/08/30 12:42:08;;;;;;;4.30;2.30;;;25.40;77.80;;;;;;5009918;28;20041;-75
2022/08/30 12:44:34;;;;;;;4.93;2.30;;;25.80;77.70;;;;;;5015544;28;20033;-74
2022/08/30 12:47:03;;;;;;;2.97;2.40;;;25.80;77.10;;;;;;5014832;28;20014;-73
2022/08/30 12:49:33;;;;;;;10.50;2.10;;;25.70;76.00;;;;;;5009236;28;20117;-73
2022/08/30 12:52:21;;;;;;;5.60;2.10;;;25.50;77.70;;;;;;5009038;28;20049;-73
2022/08/30 12:54:48;;;;;;;4.88;2.60;;;25.20;77.80;;;;;;5014792;28;20029;-72
2022/08/30 12:57:35;;;;;;;6.75;2.20;;;25.10;78.30;;;;;;5010544;28;20038;-75
2022/08/30 13:00:01;;;;;;;6.90;2.40;;;25.10;79.50;;;;;;5005542;28;20045;-73
2022/08/30 13:02:42;;;;;;;4.43;2.33;;;25.40;78.70;;;;;;5011321;28;20018;-73